Time;durP1;ratioP1;P1;durP2;ratioP2;P2;SDS_P1;SDS_P2;PMS_P1;PMS_P2;Temp;Humidity;BMP_temperature;BMP_pressure;BME280_temperature;BME280_humidity;BME280_pressure;Samples;Min_cycle;Max_cycle;Signal;HPM_P1;HPM_P2
2023/03/15 00:03:30;;;;;;;1.2;0.2;;;;;;;;;;;;;-77
2023/03/15 00:04:01;;;;;;;;;;;;;;;2.73;87.04492;101202.4;;;;-77
2023/03/15 00:09:13;;;;;;;;;;;;;;;2.6;86.5332;101204.6;;;;-78
2023/03/15 00:19:01;;;;;;;;;;;;;;;2.53;87.2334;101216.8;;;;-77
2023/03/15 00:24:00;;;;;;;;;;;;;;;2.49;86.74707;101225.4;;;;-78
2023/03/15 00:29:05;;;;;;;;;;;;;;;2.47;86.91699;101227.4;;;;-77
2023/03/15 00:33:33;;;;;;;1;0.3;;;;;;;;;;;;;-78
2023/03/15 00:34:04;;;;;;;;;;;;;;;2.4;86.70703;101230.6;;;;-77
2023/03/15 00:38:59;;;;;;;;;;;;;;;2.37;87.07031;101240.1;;;;-77
2023/03/15 00:44:03;;;;;;;;;;;;;;;2.3;87.17676;101239.9;;;;-76
2023/03/15 00:49:04;;;;;;;;;;;;;;;2.34;87.23633;101245.3;;;;-79
2023/03/15 00:53:59;;;;;;;;;;;;;;;2.31;87.23047;101245.6;;;;-78
2023/03/15 01:03:47;;;;;;;1.9;0.3;;;;;;;;;;;;;-76
2023/03/15 01:04:12;;;;;;;;;;;;;;;2.27;86.98535;101269.3;;;;-76
2023/03/15 01:12:15;;;;;;;;;;;;;;;2.27;87.13672;101286.5;;;;-75
2023/03/15 01:17:21;;;;;;;;;;;;;;;2.21;86.89648;101296.5;;;;-77
2023/03/15 01:27:28;;;;;;;;;;;;;;;2.11;86.88672;101317.1;;;;-77
2023/03/15 01:32:15;;;;;;;;;;;;;;;2.1;86.71387;101326.1;;;;-78
2023/03/15 01:33:31;;;;;;;1.4;0.4;;;;;;;;;;;;;-77
2023/03/15 01:37:16;;;;;;;;;;;;;;;2.03;86.62109;101332.9;;;;-76
2023/03/15 01:42:19;;;;;;;;;;;;;;;1.96;87.00879;101328.9;;;;-78
2023/03/15 01:47:32;;;;;;;;;;;;;;;1.92;86.87109;101332.4;;;;-77
2023/03/15 01:52:32;;;;;;;;;;;;;;;1.87;87.06445;101339.2;;;;-77
2023/03/15 02:02:26;;;;;;;;;;;;;;;1.8;87.00977;101345.7;;;;-76
2023/03/15 02:03:45;;;;;;;3;0.4;;;;;;;;;;;;;-77
2023/03/15 02:07:21;;;;;;;;;;;;;;;1.66;86.83984;101353.9;;;;-76
2023/03/15 02:12:25;;;;;;;;;;;;;;;1.65;87.22754;101359.6;;;;-77
2023/03/15 02:17:28;;;;;;;;;;;;;;;1.56;87.28418;101369.5;;;;-78
2023/03/15 02:22:22;;;;;;;;;;;;;;;1.48;86.93457;101373.7;;;;-77
2023/03/15 02:27:13;;;;;;;;;;;;;;;1.44;87.12012;101375.5;;;;-76
2023/03/15 02:32:18;;;;;;;;;;;;;;;1.33;87.11035;101387.8;;;;-78
2023/03/15 02:33:35;;;;;;;1.2;0.3;;;;;;;;;;;;;-76
2023/03/15 02:37:21;;;;;;;;;;;;;;;1.31;87.4707;101403;;;;-78
2023/03/15 02:42:14;;;;;;;;;;;;;;;1.23;86.91504;101406;;;;-76
2023/03/15 02:47:20;;;;;;;;;;;;;;;1.17;87;101413.1;;;;-77
2023/03/15 02:52:16;;;;;;;;;;;;;;;1.12;87.06641;101418.4;;;;-77
2023/03/15 02:57:16;;;;;;;;;;;;;;;1.12;87.33594;101423.4;;;;-77
2023/03/15 03:02:24;;;;;;;;;;;;;;;1.1;87.36426;101428.4;;;;-76
2023/03/15 03:03:48;;;;;;;2;0.3;;;;;;;;;;;;;-77
2023/03/15 03:07:32;;;;;;;;;;;;;;;1.03;87.33887;101437.7;;;;-79
2023/03/15 03:12:15;;;;;;;;;;;;;;;0.94;87.53613;101449.3;;;;-77
2023/03/15 03:17:17;;;;;;;;;;;;;;;0.92;87.00391;101455.3;;;;-77
2023/03/15 03:22:15;;;;;;;;;;;;;;;0.84;87.12793;101467.8;;;;-77
2023/03/15 03:27:30;;;;;;;;;;;;;;;0.76;87.46875;101478.7;;;;-78
2023/03/15 03:32:20;;;;;;;;;;;;;;;0.73;87.22363;101489.2;;;;-78
2023/03/15 03:33:36;;;;;;;2.1;0.4;;;;;;;;;;;;;-78
2023/03/15 03:42:18;;;;;;;;;;;;;;;0.72;87.5459;101502.8;;;;-77
2023/03/15 03:47:18;;;;;;;;;;;;;;;0.59;87.16406;101510.4;;;;-78
2023/03/15 03:57:14;;;;;;;;;;;;;;;0.52;87.34082;101528.9;;;;-78
2023/03/15 04:02:30;;;;;;;;;;;;;;;0.58;87.32324;101534.4;;;;-76
2023/03/15 04:03:41;;;;;;;2.9;0.5;;;;;;;;;;;;;-78
2023/03/15 04:07:16;;;;;;;;;;;;;;;0.57;87.13672;101545;;;;-76
2023/03/15 04:12:14;;;;;;;;;;;;;;;0.61;87.04883;101555.6;;;;-76
2023/03/15 04:17:15;;;;;;;;;;;;;;;0.67;86.92188;101550.9;;;;-77
2023/03/15 04:22:21;;;;;;;;;;;;;;;0.77;87.41504;101569.7;;;;-76
2023/03/15 04:27:18;;;;;;;;;;;;;;;0.8;87.09668;101574.4;;;;-78
2023/03/15 04:32:18;;;;;;;;;;;;;;;0.82;87.33984;101575.6;;;;-78
2023/03/15 04:33:37;;;;;;;1.1;0.4;;;;;;;;;;;;;-77
2023/03/15 04:37:23;;;;;;;;;;;;;;;0.81;87.1543;101587.9;;;;-77
2023/03/15 04:42:25;;;;;;;;;;;;;;;0.87;87.03613;101597.8;;;;-76
2023/03/15 04:47:17;;;;;;;;;;;;;;;0.95;87.18164;101610.4;;;;-77
2023/03/15 04:52:18;;;;;;;;;;;;;;;0.95;87.11523;101623.7;;;;-76
2023/03/15 05:02:24;;;;;;;;;;;;;;;1.03;87.62207;101630.3;;;;-80
2023/03/15 05:03:43;;;;;;;2.1;0.6;;;;;;;;;;;;;-76
2023/03/15 05:07:19;;;;;;;;;;;;;;;1.05;87.32129;101626.9;;;;-77
2023/03/15 05:12:16;;;;;;;;;;;;;;;1.03;87.43848;101627.7;;;;-77
2023/03/15 05:17:16;;;;;;;;;;;;;;;1.05;87.5498;101633.2;;;;-77
2023/03/15 05:22:24;;;;;;;;;;;;;;;0.99;87.35156;101635.1;;;;-78
2023/03/15 05:27:28;;;;;;;;;;;;;;;0.99;87.22168;101654.1;;;;-77
2023/03/15 05:32:17;;;;;;;;;;;;;;;1.01;87.31348;101667.2;;;;-77
2023/03/15 05:33:45;;;;;;;2.1;0.4;;;;;;;;;;;;;-77
2023/03/15 05:37:25;;;;;;;;;;;;;;;0.92;87.43555;101663.9;;;;-76
2023/03/15 05:42:14;;;;;;;;;;;;;;;0.92;87.1875;101667.2;;;;-79
2023/03/15 05:57:27;;;;;;;;;;;;;;;0.79;87.37695;101698.6;;;;-77
2023/03/15 06:02:23;;;;;;;;;;;;;;;0.77;87.28711;101706.6;;;;-78
2023/03/15 06:03:37;;;;;;;2;0.4;;;;;;;;;;;;;-76
2023/03/15 06:07:27;;;;;;;;;;;;;;;0.76;87.57617;101714.1;;;;-76
2023/03/15 06:12:16;;;;;;;;;;;;;;;0.72;87.51367;101723.4;;;;-77
2023/03/15 06:17:31;;;;;;;;;;;;;;;0.7;87.44336;101729.2;;;;-77
2023/03/15 06:22:19;;;;;;;;;;;;;;;0.67;87.65332;101740;;;;-77
2023/03/15 06:27:20;;;;;;;;;;;;;;;0.71;87.47852;101746.5;;;;-78
2023/03/15 06:32:25;;;;;;;;;;;;;;;0.67;87.48047;101754.5;;;;-78
2023/03/15 06:33:32;;;;;;;2.8;0.5;;;;;;;;;;;;;-77
2023/03/15 06:37:40;;;;;;;;;;;;;;;;;;;;;
2023/03/15 06:45:15;;;;;;;;;;;;;;;0.83;87.48145;101767.4;;;;-78
2023/03/15 06:50:13;;;;;;;;;;;;;;;0.87;87.3291;101768.1;;;;-77
2023/03/15 06:55:18;;;;;;;;;;;;;;;0.95;87.50781;101776.9;;;;-76
2023/03/15 07:00:10;;;;;;;;;;;;;;;1.04;87.34082;101783.5;;;;-77
2023/03/15 07:05:02;;;;;;;;;;;;;;;1.14;87.48047;101787.8;;;;-77
2023/03/15 07:10:04;;;;;;;;;;;;;;;1.28;87.49902;101791.1;;;;-76
2023/03/15 07:15:01;;;;;;;;;;;;;;;1.44;87.68164;101796.6;;;;-76
2023/03/15 07:20:04;;;;;;;;;;;;;;;1.57;87.40332;101809.8;;;;-76
2023/03/15 07:25:12;;;;;;;;;;;;;;;;;;;;;
2023/03/15 07:30:16;;;;;;;;;;;;;;;1.9;86.24023;101809.5;;;;-77
2023/03/15 07:33:31;;;;;;;2.5;0.6;;;;;;;;;;;;;-78
2023/03/15 07:35:06;;;;;;;;;;;;;;;2.07;86.28613;101815.3;;;;-76
2023/03/15 07:40:08;;;;;;;;;;;;;;;2.27;86.11816;101821.3;;;;-78
2023/03/15 07:45:04;;;;;;;;;;;;;;;2.52;85.69043;101827.7;;;;-77
2023/03/15 07:50:02;;;;;;;;;;;;;;;2.81;85.2168;101836.4;;;;-77
2023/03/15 07:55:11;;;;;;;;;;;;;;;3.08;84.65234;101844.8;;;;-77
2023/03/15 08:00:13;;;;;;;;;;;;;;;3.37;84.11035;101854.3;;;;-77
2023/03/15 08:03:34;;;;;;;3;0.7;;;;;;;;;;;;;-76
2023/03/15 08:05:03;;;;;;;;;;;;;;;3.73;84.29004;101857.9;;;;-77
2023/03/15 08:10:10;;;;;;;;;;;;;;;4.1;83.8291;101851.3;;;;-78
2023/03/15 08:15:06;;;;;;;;;;;;;;;4.46;84.11621;101855.1;;;;-78
2023/03/15 08:20:06;;;;;;;;;;;;;;;4.87;83.62012;101860.2;;;;-78
2023/03/15 08:25:10;;;;;;;;;;;;;;;5.29;83.625;101868.3;;;;-77
2023/03/15 08:30:19;;;;;;;;;;;;;;;5.86;82.68457;101876.6;;;;-77
2023/03/15 08:37:18;;;;;;;;;;;;;;;6.41;82.08008;101873.1;;;;-78
2023/03/15 08:45:12;;;;;;;;;;;;;;;6.91;81.51465;101888.5;;;;-78
2023/03/15 08:50:14;;;;;;;;;;;;;;;7.38;80.98926;101891.6;;;;-78
2023/03/15 08:55:08;;;;;;;;;;;;;;;7.8;79.43848;101887.1;;;;-76
2023/03/15 09:00:10;;;;;;;;;;;;;;;8.11;77.8125;101879.7;;;;-78
2023/03/15 09:03:41;;;;;;;3.9;1.1;;;;;;;;;;;;;-77
2023/03/15 09:05:17;;;;;;;;;;;;;;;;;;;;;
2023/03/15 09:10:07;;;;;;;;;;;;;;;8.7;76.44043;101868.7;;;;-79
2023/03/15 09:20:17;;;;;;;;;;;;;;;9.35;75.45996;101869.9;;;;-78
2023/03/15 09:25:16;;;;;;;;;;;;;;;9.58;73.0459;101866.5;;;;-79
2023/03/15 09:30:22;;;;;;;;;;;;;;;9.58;72.69238;101864.8;;;;-77
2023/03/15 09:40:06;;;;;;;;;;;;;;;9.75;71.45703;101878.5;;;;-78
2023/03/15 09:45:17;;;;;;;;;;;;;;;9.99;70.84277;101877.5;;;;-76
2023/03/15 09:50:10;;;;;;;;;;;;;;;10.16;70.40527;101881.8;;;;-77
2023/03/15 09:55:15;;;;;;;;;;;;;;;10.39;69.78809;101888.4;;;;-77
2023/03/15 10:00:10;;;;;;;;;;;;;;;10.68;69.42285;101892.5;;;;-77
2023/03/15 10:05:17;;;;;;;;;;;;;;;9.26;65.77539;101897.9;;;;-77
2023/03/15 10:10:17;;;;;;;;;;;;;;;8.73;67.06934;101903.8;;;;-76
2023/03/15 10:15:15;;;;;;;;;;;;;;;8.22;66.25977;101904.3;;;;-75
2023/03/15 10:20:09;;;;;;;;;;;;;;;8.76;67.41504;101904.2;;;;-73
2023/03/15 10:25:08;;;;;;;;;;;;;;;10.33;66.34863;101898.9;;;;-75
2023/03/15 10:30:05;;;;;;;;;;;;;;;10.66;64.93164;101908.7;;;;-70
2023/03/15 10:33:36;;;;;;;4.1;0.9;;;;;;;;;;;;;-74
2023/03/15 10:35:04;;;;;;;;;;;;;;;9.66;65.1709;101919.7;;;;-74
2023/03/15 10:40:06;;;;;;;;;;;;;;;10.71;66.14941;101920.1;;;;-74
2023/03/15 10:45:14;;;;;;;;;;;;;;;11.04;66.32129;101926.4;;;;-73
2023/03/15 10:50:07;;;;;;;;;;;;;;;11.07;66.62793;101936.3;;;;-74
2023/03/15 10:55:06;;;;;;;;;;;;;;;11.23;66.8291;101941.3;;;;-74
2023/03/15 11:00:16;;;;;;;;;;;;;;;11.41;65.91113;101954.9;;;;-74
2023/03/15 11:03:39;;;;;;;6.6;1;;;;;;;;;;;;;-74
2023/03/15 11:05:18;;;;;;;;;;;;;;;11.65;66.41602;101969.3;;;;-74
2023/03/15 11:10:26;;;;;;;;;;;;;;;11.9;65.58301;101969;;;;-75
2023/03/15 11:15:06;;;;;;;;;;;;;;;12.13;63.98926;101978.4;;;;-74
2023/03/15 11:20:15;;;;;;;;;;;;;;;12.23;66.2793;101982;;;;-75
2023/03/15 11:25:04;;;;;;;;;;;;;;;12.49;65.10254;101983.7;;;;-74
2023/03/15 11:30:04;;;;;;;;;;;;;;;12.51;66.79102;101981.5;;;;-74
2023/03/15 11:33:41;;;;;;;2.7;0.8;;;;;;;;;;;;;-78
2023/03/15 11:35:06;;;;;;;;;;;;;;;12.32;68.49023;101977.3;;;;-75
2023/03/15 11:40:23;;;;;;;;;;;;;;;12.5;68.83105;101967.7;;;;-75
2023/03/15 11:45:07;;;;;;;;;;;;;;;12.77;66.09277;101966.7;;;;-76
2023/03/15 11:50:04;;;;;;;;;;;;;;;12.89;68.89355;101965.3;;;;-75
2023/03/15 11:55:08;;;;;;;;;;;;;;;12.69;68.37109;101966;;;;-75
2023/03/15 12:00:14;;;;;;;;;;;;;;;12.73;69.9375;101973.2;;;;-75
2023/03/15 12:03:41;;;;;;;4.4;0.9;;;;;;;;;;;;;-75
2023/03/15 12:05:08;;;;;;;;;;;;;;;12.73;68.63281;101964.5;;;;-74
2023/03/15 12:10:14;;;;;;;;;;;;;;;12.84;77.2998;101965.4;;;;-75
2023/03/15 12:15:18;;;;;;;;;;;;;;;12.85;77.91309;101974.3;;;;-74
2023/03/15 12:20:08;;;;;;;;;;;;;;;12.79;77.34766;101969.5;;;;-75
2023/03/15 12:25:08;;;;;;;;;;;;;;;12.9;75.26172;101975.3;;;;-74
2023/03/15 12:30:05;;;;;;;;;;;;;;;11.78;56.45898;101973.9;;;;-73
2023/03/15 12:33:47;;;;;;;3.1;0.8;;;;;;;;;;;;;-77
2023/03/15 12:35:10;;;;;;;;;;;;;;;9.85;54.95313;101977.7;;;;-75
2023/03/15 12:40:17;;;;;;;;;;;;;;;10.84;64.10156;101974.1;;;;-73
2023/03/15 12:45:15;;;;;;;;;;;;;;;11.82;66.53125;101973.2;;;;-72
2023/03/15 12:50:14;;;;;;;;;;;;;;;12.16;70.48145;101964.3;;;;-74
2023/03/15 12:55:08;;;;;;;;;;;;;;;12.36;69.46582;101954.5;;;;-75
2023/03/15 13:00:10;;;;;;;;;;;;;;;12.36;71.66211;101944.9;;;;-75
2023/03/15 13:03:43;;;;;;;3.2;0.9;;;;;;;;;;;;;-74
2023/03/15 13:05:07;;;;;;;;;;;;;;;12.49;72.57422;101943;;;;-74
2023/03/15 13:10:20;;;;;;;;;;;;;;;12.44;71.58496;101944.5;;;;-74
2023/03/15 13:15:06;;;;;;;;;;;;;;;12.61;70.44141;101936;;;;-74
2023/03/15 13:20:15;;;;;;;;;;;;;;;12.59;72.99219;101933.1;;;;-73
2023/03/15 13:25:08;;;;;;;;;;;;;;;12.59;68.58887;101931.8;;;;-73
2023/03/15 13:30:04;;;;;;;;;;;;;;;12.6;70.14063;101928.1;;;;-73
2023/03/15 13:33:45;;;;;;;6.4;0.7;;;;;;;;;;;;;-73
2023/03/15 13:35:04;;;;;;;;;;;;;;;12.76;71.17969;101939.6;;;;-73
2023/03/15 13:40:05;;;;;;;;;;;;;;;12.69;74.90234;101941.8;;;;-74
2023/03/15 13:45:20;;;;;;;;;;;;;;;12.65;68.92188;101950.2;;;;-75
2023/03/15 13:50:05;;;;;;;;;;;;;;;12.47;67.62207;101953.9;;;;-73
2023/03/15 13:55:05;;;;;;;;;;;;;;;12.49;71.73926;101953.1;;;;-74
2023/03/15 14:00:09;;;;;;;;;;;;;;;12.51;70.68164;101944.3;;;;-73
2023/03/15 14:03:50;;;;;;;6.2;0.7;;;;;;;;;;;;;-74
2023/03/15 14:05:05;;;;;;;;;;;;;;;12.43;69.03125;101952.3;;;;-73
2023/03/15 14:10:24;;;;;;;;;;;;;;;12.45;70.1709;101944.3;;;;-73
2023/03/15 14:15:04;;;;;;;;;;;;;;;12.45;67.16016;101949.7;;;;-73
2023/03/15 14:20:18;;;;;;;;;;;;;;;12.31;70.58398;101955.4;;;;-74
2023/03/15 14:25:04;;;;;;;;;;;;;;;12.34;69.12891;101949.8;;;;-74
2023/03/15 14:30:06;;;;;;;;;;;;;;;12.2;66.98926;101945.9;;;;-73
2023/03/15 14:33:59;;;;;;;3.4;0.7;;;;;;;;;;;;;-74
2023/03/15 14:35:06;;;;;;;;;;;;;;;12.08;67.96191;101945.1;;;;-74
2023/03/15 14:40:15;;;;;;;;;;;;;;;12.01;69.09961;101936.1;;;;-74
2023/03/15 14:45:04;;;;;;;;;;;;;;;11.98;69.40625;101935.1;;;;-74
2023/03/15 14:50:07;;;;;;;;;;;;;;;11.96;71.08398;101936.2;;;;-73
2023/03/15 14:55:04;;;;;;;;;;;;;;;11.87;69.26563;101944.6;;;;-74
2023/03/15 15:00:06;;;;;;;;;;;;;;;11.78;69.1416;101941.7;;;;-73
2023/03/15 15:03:53;;;;;;;3.6;1;;;;;;;;;;;;;-73
2023/03/15 15:05:04;;;;;;;;;;;;;;;11.68;67.7002;101939.3;;;;-74
2023/03/15 15:10:04;;;;;;;;;;;;;;;11.53;69.5127;101934.6;;;;-73
2023/03/15 15:15:05;;;;;;;;;;;;;;;11.37;69.12305;101924.9;;;;-75
2023/03/15 15:20:06;;;;;;;;;;;;;;;11.35;71.3291;101921.6;;;;-73
2023/03/15 15:25:04;;;;;;;;;;;;;;;11.27;72.43945;101918.6;;;;-74
2023/03/15 15:30:04;;;;;;;;;;;;;;;11.2;71.07227;101917.6;;;;-74
2023/03/15 15:33:55;;;;;;;5;1.1;;;;;;;;;;;;;-74
2023/03/15 15:35:19;;;;;;;;;;;;;;;11.11;71.8125;101911.9;;;;-73
2023/03/15 15:40:04;;;;;;;;;;;;;;;11.02;70.54395;101906.1;;;;-74
2023/03/15 15:45:04;;;;;;;;;;;;;;;10.92;70.36133;101905.5;;;;-74
2023/03/15 15:50:04;;;;;;;;;;;;;;;10.8;72.62891;101898.2;;;;-74
2023/03/15 15:55:06;;;;;;;;;;;;;;;10.74;73.7168;101909.2;;;;-73
2023/03/15 16:00:04;;;;;;;;;;;;;;;10.64;73.02148;101907.9;;;;-74
2023/03/15 16:03:54;;;;;;;2.8;0.9;;;;;;;;;;;;;-73
2023/03/15 16:05:04;;;;;;;;;;;;;;;10.58;73.30078;101904.2;;;;-74
2023/03/15 16:10:04;;;;;;;;;;;;;;;10.49;73.13086;101909.3;;;;-73
2023/03/15 16:15:04;;;;;;;;;;;;;;;10.42;74.21582;101911.2;;;;-74
2023/03/15 16:20:09;;;;;;;;;;;;;;;10.32;73.70117;101914.3;;;;-73
2023/03/15 16:25:04;;;;;;;;;;;;;;;10.22;74.9248;101918.7;;;;-74
2023/03/15 16:30:04;;;;;;;;;;;;;;;10.11;75.94531;101922;;;;-75
2023/03/15 16:33:56;;;;;;;2.6;0.9;;;;;;;;;;;;;-74
2023/03/15 16:35:06;;;;;;;;;;;;;;;10.01;76.92383;101918.5;;;;-76
2023/03/15 16:40:09;;;;;;;;;;;;;;;9.87;76.66699;101920.1;;;;-73
2023/03/15 16:45:04;;;;;;;;;;;;;;;9.74;76.59863;101931.3;;;;-74
2023/03/15 16:50:07;;;;;;;;;;;;;;;9.61;77.00781;101940;;;;-74
2023/03/15 16:55:06;;;;;;;;;;;;;;;9.46;77.30273;101946;;;;-74
2023/03/15 17:00:10;;;;;;;;;;;;;;;9.31;76.76855;101943.3;;;;-73
2023/03/15 17:03:58;;;;;;;3.7;0.9;;;;;;;;;;;;;-75
2023/03/15 17:05:04;;;;;;;;;;;;;;;9.16;77.98828;101942.5;;;;-75
2023/03/15 17:10:10;;;;;;;;;;;;;;;9;78.96484;101945.2;;;;-74
2023/03/15 17:15:04;;;;;;;;;;;;;;;8.85;79.57617;101939.4;;;;-75
2023/03/15 17:20:08;;;;;;;;;;;;;;;8.66;79.39746;101937.3;;;;-74
2023/03/15 17:25:09;;;;;;;;;;;;;;;8.51;79.19531;101936;;;;-74
2023/03/15 17:30:04;;;;;;;;;;;;;;;8.35;79;101940.1;;;;-74
2023/03/15 17:34:02;;;;;;;3.6;0.9;;;;;;;;;;;;;-73
2023/03/15 17:35:04;;;;;;;;;;;;;;;8.2;79.11523;101935.9;;;;-74
2023/03/15 17:40:10;;;;;;;;;;;;;;;8.04;79.97852;101932.5;;;;-75
2023/03/15 17:45:04;;;;;;;;;;;;;;;7.84;79.02832;101939.9;;;;-74
2023/03/15 17:50:04;;;;;;;;;;;;;;;7.66;79.53613;101949.2;;;;-73
2023/03/15 17:55:04;;;;;;;;;;;;;;;7.49;79.72266;101950.6;;;;-74
2023/03/15 18:00:04;;;;;;;;;;;;;;;7.35;80.14746;101948.9;;;;-75
2023/03/15 18:04:02;;;;;;;3;0.9;;;;;;;;;;;;;-74
2023/03/15 18:05:06;;;;;;;;;;;;;;;7.22;79.75098;101951.6;;;;-74
2023/03/15 18:10:09;;;;;;;;;;;;;;;7.09;79.81543;101958.2;;;;-74
2023/03/15 18:15:07;;;;;;;;;;;;;;;6.91;79.83691;101959.4;;;;-75
2023/03/15 18:20:05;;;;;;;;;;;;;;;6.74;79.94922;101959.9;;;;-73
2023/03/15 18:25:04;;;;;;;;;;;;;;;6.62;79.68457;101967.2;;;;-73
2023/03/15 18:30:04;;;;;;;;;;;;;;;6.48;79.88965;101968.4;;;;-75
2023/03/15 18:34:02;;;;;;;3;1.2;;;;;;;;;;;;;-74
2023/03/15 18:35:06;;;;;;;;;;;;;;;6.37;79.71582;101963.9;;;;-75
2023/03/15 18:40:07;;;;;;;;;;;;;;;6.27;79.59863;101963.3;;;;-74
2023/03/15 18:45:04;;;;;;;;;;;;;;;6.17;79.85449;101959.7;;;;-74
2023/03/15 18:50:04;;;;;;;;;;;;;;;6.07;79.79199;101958.8;;;;-74
2023/03/15 18:55:06;;;;;;;;;;;;;;;5.99;79.85156;101954.8;;;;-74
2023/03/15 19:00:06;;;;;;;;;;;;;;;5.87;80.04004;101949.9;;;;-74
2023/03/15 19:04:04;;;;;;;3.5;1.2;;;;;;;;;;;;;-73
2023/03/15 19:05:04;;;;;;;;;;;;;;;5.79;80.0791;101953.6;;;;-73
2023/03/15 19:10:04;;;;;;;;;;;;;;;5.71;80.50195;101955.1;;;;-74
2023/03/15 19:15:04;;;;;;;;;;;;;;;5.64;80.61035;101958.3;;;;-74
2023/03/15 19:20:04;;;;;;;;;;;;;;;5.5;80.4082;101955.5;;;;-75
2023/03/15 19:25:04;;;;;;;;;;;;;;;5.44;80.45313;101953.5;;;;-75
2023/03/15 19:52:01;;;;;;;;;;;;;;;5.17;80.52246;101936.2;;;;-77
2023/03/15 19:57:01;;;;;;;;;;;;;;;5.14;80.625;101934.9;;;;-74
2023/03/15 20:02:01;;;;;;;;;;;;;;;5.09;80.41992;101938;;;;-74
2023/03/15 20:04:05;;;;;;;4.8;1.6;;;;;;;;;;;;;-74
2023/03/15 20:07:04;;;;;;;;;;;;;;;5.07;80.58008;101932.1;;;;-75
2023/03/15 20:12:01;;;;;;;;;;;;;;;5.02;80.58008;101938;;;;-78
2023/03/15 20:17:02;;;;;;;;;;;;;;;5;80.68652;101943.1;;;;-75
2023/03/15 20:22:01;;;;;;;;;;;;;;;4.97;80.6377;101937.9;;;;-75
2023/03/15 20:27:01;;;;;;;;;;;;;;;4.91;80.61523;101934.9;;;;-74
2023/03/15 20:32:03;;;;;;;;;;;;;;;4.92;80.68359;101930.2;;;;-74
2023/03/15 20:34:07;;;;;;;3.7;1.8;;;;;;;;;;;;;-75
2023/03/15 20:37:01;;;;;;;;;;;;;;;4.88;80.60938;101929.1;;;;-74
2023/03/15 20:42:01;;;;;;;;;;;;;;;4.85;80.56055;101930.6;;;;-74
2023/03/15 20:47:01;;;;;;;;;;;;;;;4.85;80.39551;101931.9;;;;-74
2023/03/15 20:52:01;;;;;;;;;;;;;;;4.78;80.52539;101926.4;;;;-75
2023/03/15 20:57:05;;;;;;;;;;;;;;;4.77;80.49121;101925.7;;;;-74
2023/03/15 21:02:02;;;;;;;;;;;;;;;4.76;80.58789;101928.3;;;;-75
2023/03/15 21:04:10;;;;;;;4.6;2.2;;;;;;;;;;;;;-74
2023/03/15 21:07:04;;;;;;;;;;;;;;;4.72;80.58105;101912.4;;;;-74
2023/03/15 21:12:05;;;;;;;;;;;;;;;4.72;80.6123;101912.4;;;;-75
2023/03/15 21:17:02;;;;;;;;;;;;;;;4.7;80.45605;101908.5;;;;-74
2023/03/15 21:22:02;;;;;;;;;;;;;;;4.65;80.5459;101900.6;;;;-74
2023/03/15 21:27:08;;;;;;;;;;;;;;;4.66;80.64355;101894.5;;;;-74
2023/03/15 21:32:01;;;;;;;;;;;;;;;4.63;80.5625;101892.7;;;;-75
2023/03/15 21:34:08;;;;;;;6.6;2.6;;;;;;;;;;;;;-76
2023/03/15 21:37:01;;;;;;;;;;;;;;;4.61;80.64746;101885.6;;;;-74
2023/03/15 21:42:02;;;;;;;;;;;;;;;4.6;80.46973;101885.9;;;;-74
2023/03/15 21:47:05;;;;;;;;;;;;;;;4.61;80.60254;101882.9;;;;-71
2023/03/15 21:52:03;;;;;;;;;;;;;;;4.58;80.48828;101882.8;;;;-74
2023/03/15 21:57:01;;;;;;;;;;;;;;;4.59;80.50098;101878.6;;;;-74
2023/03/15 22:02:01;;;;;;;;;;;;;;;4.55;80.51367;101875.5;;;;-74
2023/03/15 22:04:08;;;;;;;5.5;3;;;;;;;;;;;;;-73
2023/03/15 22:07:01;;;;;;;;;;;;;;;4.54;80.35059;101873.8;;;;-74
2023/03/15 22:12:01;;;;;;;;;;;;;;;4.55;80.49219;101863.9;;;;-73
2023/03/15 22:17:03;;;;;;;;;;;;;;;4.5;80.58203;101863.7;;;;-73
2023/03/15 22:22:01;;;;;;;;;;;;;;;4.49;80.39355;101856.2;;;;-74
2023/03/15 22:27:01;;;;;;;;;;;;;;;4.47;80.64063;101855.3;;;;-73
2023/03/15 22:32:03;;;;;;;;;;;;;;;4.39;80.55078;101852;;;;-73
2023/03/15 22:34:11;;;;;;;8.5;3.6;;;;;;;;;;;;;-75
2023/03/15 22:37:07;;;;;;;;;;;;;;;4.37;80.67871;101854.6;;;;-73
2023/03/15 22:42:02;;;;;;;;;;;;;;;4.34;80.83691;101859.5;;;;-76
2023/03/15 22:47:01;;;;;;;;;;;;;;;4.29;80.77344;101855;;;;-75
2023/03/15 22:52:01;;;;;;;;;;;;;;;4.28;80.85742;101851.6;;;;-75
2023/03/15 22:57:01;;;;;;;;;;;;;;;4.29;80.72852;101850.6;;;;-74
2023/03/15 23:02:01;;;;;;;;;;;;;;;4.28;80.77051;101846.2;;;;-75
2023/03/15 23:04:11;;;;;;;6.7;3.8;;;;;;;;;;;;;-75
2023/03/15 23:07:03;;;;;;;;;;;;;;;4.24;80.88379;101844.7;;;;-75
2023/03/15 23:12:01;;;;;;;;;;;;;;;4.25;80.69922;101836.5;;;;-74
2023/03/15 23:17:02;;;;;;;;;;;;;;;4.24;80.76367;101832.9;;;;-75
2023/03/15 23:22:01;;;;;;;;;;;;;;;4.25;80.75391;101836.6;;;;-74
2023/03/15 23:27:02;;;;;;;;;;;;;;;4.24;80.79395;101833.3;;;;-73
2023/03/15 23:32:01;;;;;;;;;;;;;;;4.24;80.70703;101828.1;;;;-72
2023/03/15 23:34:13;;;;;;;9;3.8;;;;;;;;;;;;;-73
2023/03/15 23:37:01;;;;;;;;;;;;;;;4.25;80.71094;101826.5;;;;-73
2023/03/15 23:42:01;;;;;;;;;;;;;;;4.27;80.4834;101835.3;;;;-73
2023/03/15 23:47:01;;;;;;;;;;;;;;;4.24;80.48926;101840;;;;-74
2023/03/15 23:52:06;;;;;;;;;;;;;;;4.25;80.52539;101838.1;;;;-73
2023/03/15 23:57:01;;;;;;;;;;;;;;;4.22;80.71484;101826.4;;;;-75
